Time;durP1;ratioP1;P1;durP2;ratioP2;P2;SDS_P1;SDS_P2;PMS_P1;PMS_P2;Temp;Humidity;BMP_temperature;BMP_pressure;BME280_temperature;BME280_humidity;BME280_pressure;Samples;Min_cycle;Max_cycle;Signal;HPM_P1;HPM_P2
2023/08/17 00:01:49;;;;;;;;;10.00;10.00;;;;;25.78;100.00;101435.69;5039609;28;45510;-73
2023/08/17 00:04:15;;;;;;;;;11.00;11.00;;;;;25.76;100.00;101432.16;5041654;28;45475;-73
2023/08/17 00:06:40;;;;;;;;;11.00;10.00;;;;;25.74;100.00;101433.16;5038528;28;45413;-74
2023/08/17 00:09:06;;;;;;;;;11.00;11.00;;;;;25.73;100.00;101436.81;5042208;28;45419;-73
2023/08/17 00:11:33;;;;;;;;;12.33;10.67;;;;;25.69;100.00;101440.56;5036003;28;47278;-73
2023/08/17 00:13:58;;;;;;;;;11.00;11.00;;;;;25.68;100.00;101439.69;5036756;28;45459;-73
2023/08/17 00:16:24;;;;;;;;;9.33;9.33;;;;;25.66;100.00;101446.97;5036263;28;45506;-73
2023/08/17 00:18:49;;;;;;;;;12.33;11.00;;;;;25.65;100.00;101438.94;5036617;28;45466;-73
2023/08/17 00:21:15;;;;;;;;;11.33;9.67;;;;;25.60;100.00;101445.41;5035055;28;66456;-74
2023/08/17 00:23:40;;;;;;;;;12.00;11.00;;;;;25.58;100.00;101441.91;5035819;28;67422;-72
2023/08/17 00:26:06;;;;;;;;;10.00;9.00;;;;;25.57;100.00;101437.44;5036785;28;48108;-74
2023/08/17 00:28:31;;;;;;;;;13.00;11.67;;;;;25.58;100.00;101438.31;5041332;28;45288;-74
2023/08/17 00:30:56;;;;;;;;;13.00;10.67;;;;;25.54;100.00;101436.69;5036962;28;46542;-73
2023/08/17 00:33:22;;;;;;;;;11.00;9.67;;;;;25.51;100.00;101437.66;5035960;28;66161;-73
2023/08/17 00:35:47;;;;;;;;;11.33;10.33;;;;;25.49;100.00;101438.69;5035872;28;64153;-74
2023/08/17 00:38:12;;;;;;;;;11.00;9.00;;;;;25.47;100.00;101438.75;5035871;28;58862;-74
2023/08/17 00:40:38;;;;;;;;;11.67;9.33;;;;;25.45;100.00;101440.63;5034882;28;65563;-72
2023/08/17 00:43:05;;;;;;;;;12.00;11.00;;;;;25.44;100.00;101438.88;5036011;28;45277;-72
2023/08/17 00:45:31;;;;;;;;;11.67;10.67;;;;;25.48;100.00;101436.94;5035056;28;57486;-72
2023/08/17 00:47:57;;;;;;;;;9.00;9.00;;;;;25.48;100.00;101443.22;5035053;28;59316;-74
2023/08/17 00:50:24;;;;;;;;;10.00;10.00;;;;;25.29;100.00;101443.09;5034751;28;46606;-73
2023/08/17 00:52:51;;;;;;;;;11.00;11.00;;;;;25.24;100.00;101444.22;5034193;28;45360;-72
2023/08/17 00:55:16;;;;;;;;;12.67;11.00;;;;;25.30;100.00;101442.16;5036472;28;45499;-72
2023/08/17 00:57:42;;;;;;;;;10.67;10.00;;;;;25.29;100.00;101439.50;5034596;28;58787;-72
2023/08/17 01:00:09;;;;;;;;;10.00;10.00;;;;;25.27;100.00;101433.28;5036461;28;46428;-72
2023/08/17 01:02:34;;;;;;;;;9.67;9.67;;;;;25.15;100.00;101437.38;5035214;28;45424;-72
2023/08/17 01:05:00;;;;;;;;;9.67;9.00;;;;;25.19;100.00;101435.41;5034430;28;45462;-74
2023/08/17 01:07:25;;;;;;;;;12.00;12.00;;;;;25.18;100.00;101433.66;5035217;28;45591;-73
2023/08/17 01:09:51;;;;;;;;;12.67;10.67;;;;;25.19;100.00;101436.28;5034149;28;58789;-72
2023/08/17 01:12:32;;;;;;;;;11.33;10.33;;;;;25.17;100.00;101430.06;5035029;28;67287;-72
2023/08/17 01:15:09;;;;;;;;;12.33;10.33;;;;;25.12;100.00;101431.19;5032848;28;45348;-73
2023/08/17 01:17:57;;;;;;;;;10.67;10.67;;;;;25.11;100.00;101438.44;5036150;28;45571;-72
2023/08/17 01:20:23;;;;;;;;;11.33;10.33;;;;;25.07;100.00;101436.78;5035243;28;46675;-72
2023/08/17 01:22:49;;;;;;;;;11.00;11.00;;;;;25.03;100.00;101433.28;5035406;28;45355;-72
2023/08/17 01:25:16;;;;;;;;;9.00;9.00;;;;;24.98;100.00;101429.00;5034406;28;45498;-74
2023/08/17 01:27:44;;;;;;;;;12.00;10.67;;;;;25.04;100.00;101439.59;5039868;28;61037;-72
2023/08/17 01:30:11;;;;;;;;;13.00;12.00;;;;;25.00;100.00;101440.66;5035021;28;46795;-72
2023/08/17 01:32:40;;;;;;;;;6.00;6.00;;;;;24.91;100.00;101436.47;5040523;28;45496;-73
2023/08/17 01:35:40;;;;;;;;;14.00;13.00;;;;;24.90;100.00;101433.84;5035217;28;45255;-73
2023/08/17 01:38:07;;;;;;;;;11.33;11.33;;;;;24.97;100.00;101424.53;5035685;28;45490;-72
2023/08/17 01:40:33;;;;;;;;;11.00;11.00;;;;;24.86;100.00;101438.47;5033223;28;46419;-73
2023/08/17 01:43:00;;;;;;;;;12.00;10.33;;;;;24.73;100.00;101437.19;5033912;28;46001;-73
2023/08/17 01:45:25;;;;;;;;;13.33;13.33;;;;;24.82;100.00;101436.81;5032666;28;45495;-73
2023/08/17 01:47:51;;;;;;;;;12.33;10.33;;;;;24.90;100.00;101434.72;5041238;28;51801;-72
2023/08/17 01:50:16;;;;;;;;;15.33;12.00;;;;;24.72;100.00;101446.25;5036673;28;45706;-73
2023/08/17 01:52:41;;;;;;;;;13.67;13.67;;;;;24.68;100.00;101448.16;5035938;28;46434;-74
2023/08/17 01:55:08;;;;;;;;;12.00;12.00;;;;;24.62;100.00;101444.81;5033489;28;45345;-73
2023/08/17 01:57:33;;;;;;;;;15.00;13.67;;;;;24.59;100.00;101442.22;5034751;28;45318;-72
2023/08/17 01:59:59;;;;;;;;;16.33;14.33;;;;;24.55;100.00;101442.38;5034858;28;45800;-73
2023/08/17 02:02:25;;;;;;;;;18.67;16.33;;;;;24.56;100.00;101437.84;5035438;28;45324;-74
2023/08/17 02:04:50;;;;;;;;;13.67;13.67;;;;;24.57;100.00;101442.28;5038064;28;45453;-74
2023/08/17 02:07:16;;;;;;;;;14.00;12.00;;;;;24.53;100.00;101443.34;5034426;28;45282;-72
2023/08/17 02:09:41;;;;;;;;;15.00;15.00;;;;;24.65;100.00;101447.38;5034767;28;46759;-72
2023/08/17 02:12:08;;;;;;;;;13.33;13.33;;;;;24.53;100.00;101444.22;5031711;28;45261;-72
2023/08/17 02:14:33;;;;;;;;;16.67;14.00;;;;;24.50;100.00;101441.66;5035140;28;45291;-72
2023/08/17 02:16:58;;;;;;;;;13.33;13.33;;;;;24.46;100.00;101447.22;5033805;28;45454;-72
2023/08/17 02:19:24;;;;;;;;;15.33;15.33;;;;;24.41;100.00;101444.69;5033537;28;46256;-74
2023/08/17 02:21:49;;;;;;;;;16.00;15.00;;;;;24.43;100.00;101447.31;5031669;28;67558;-72
2023/08/17 02:24:14;;;;;;;;;22.33;18.00;;;;;24.38;100.00;101458.28;5034206;28;45403;-73
2023/08/17 02:26:40;;;;;;;;;16.67;16.67;;;;;24.37;100.00;101447.53;5031615;28;58550;-73
2023/08/17 02:29:05;;;;;;;;;15.00;15.00;;;;;24.36;100.00;101454.75;5035499;28;53279;-74
2023/08/17 02:31:30;;;;;;;;;17.33;17.33;;;;;24.35;100.00;101453.00;5032938;28;45331;-74
2023/08/17 02:34:00;;;;;;;;;19.33;16.33;;;;;24.39;100.00;101459.16;5033597;28;58039;-72
2023/08/17 02:36:26;;;;;;;;;13.00;12.67;;;;;24.37;100.00;101456.53;5034972;28;45618;-74
2023/08/17 02:38:51;;;;;;;;;15.00;12.67;;;;;24.40;100.00;101460.94;5034660;28;45392;-72
2023/08/17 02:41:17;;;;;;;;;15.33;13.67;;;;;24.36;100.00;101460.16;5034575;28;45419;-73
2023/08/17 02:43:42;;;;;;;;;11.00;11.00;;;;;24.39;100.00;101460.03;5028329;28;63339;-72
2023/08/17 02:46:07;;;;;;;;;14.00;11.00;;;;;24.41;100.00;101454.59;5026459;28;60774;-73
2023/08/17 02:48:33;;;;;;;;;14.00;14.00;;;;;24.42;100.00;101456.34;5024863;28;56535;-73
2023/08/17 02:50:58;;;;;;;;;14.67;14.67;;;;;24.49;100.00;101456.06;5032217;28;45370;-73
2023/08/17 02:53:24;;;;;;;;;15.67;14.33;;;;;24.51;100.00;101459.59;5017575;28;65537;-73
2023/08/17 02:55:49;;;;;;;;;14.33;14.33;;;;;24.52;100.00;101463.19;5026382;28;45583;-72
2023/08/17 02:58:14;;;;;;;;;16.00;14.33;;;;;24.53;100.00;101463.13;5026142;28;58735;-72
2023/08/17 03:00:40;;;;;;;;;14.33;13.67;;;;;24.54;100.00;101464.88;5032378;28;56906;-72
2023/08/17 03:03:05;;;;;;;;;18.00;16.33;;;;;24.52;100.00;101468.59;5035693;28;45341;-74
2023/08/17 03:05:30;;;;;;;;;14.67;14.33;;;;;24.52;100.00;101472.16;5030229;28;54974;-72
2023/08/17 03:07:56;;;;;;;;;16.00;15.00;;;;;24.54;100.00;101464.00;5022497;28;70379;-73
2023/08/17 03:10:21;;;;;;;;;16.33;13.67;;;;;24.54;100.00;101464.88;5019053;28;45372;-74
2023/08/17 03:12:47;;;;;;;;;18.67;14.67;;;;;24.54;100.00;101470.28;5000865;28;45503;-72
2023/08/17 03:15:12;;;;;;;;;13.67;13.00;;;;;24.52;100.00;101460.47;5026314;28;45447;-72
2023/08/17 03:17:37;;;;;;;;;15.33;12.00;;;;;24.52;100.00;101461.38;5031859;28;45762;-72
2023/08/17 03:20:06;;;;;;;;;19.00;16.33;;;;;24.51;100.00;101459.59;5034772;28;65385;-74
2023/08/17 03:22:31;;;;;;;;;19.00;16.00;;;;;24.47;100.00;101446.28;5026922;28;45450;-74
2023/08/17 03:24:57;;;;;;;;;17.67;15.33;;;;;24.46;100.00;101449.91;5025653;28;45363;-74
2023/08/17 03:27:22;;;;;;;;;17.00;16.00;;;;;24.44;100.00;101446.38;5024385;28;46207;-73
2023/08/17 03:29:47;;;;;;;;;15.00;15.00;;;;;24.40;100.00;101451.03;5022578;28;50158;-72
2023/08/17 03:32:12;;;;;;;;;20.00;16.00;;;;;24.35;100.00;101450.31;5030389;28;62188;-73
2023/08/17 03:34:38;;;;;;;;;13.67;12.67;;;;;24.30;100.00;101449.56;5020890;28;56449;-72
2023/08/17 03:37:04;;;;;;;;;19.00;16.67;;;;;24.32;100.00;101450.38;5025570;28;68609;-74
2023/08/17 03:39:29;;;;;;;;;16.33;15.00;;;;;24.36;100.00;101452.06;5017206;28;45611;-72
2023/08/17 03:41:55;;;;;;;;;15.67;15.67;;;;;24.34;100.00;101442.22;5032145;28;63153;-74
2023/08/17 03:44:20;;;;;;;;;15.33;15.33;;;;;24.33;100.00;101449.44;5020365;28;60154;-71
2023/08/17 03:46:45;;;;;;;;;18.00;16.33;;;;;24.22;100.00;101454.34;5018357;28;66265;-72
2023/08/17 03:49:11;;;;;;;;;18.67;17.67;;;;;24.26;100.00;101459.56;5031694;28;68023;-73
2023/08/17 03:51:36;;;;;;;;;18.67;16.00;;;;;24.18;100.00;101458.06;5028573;28;45399;-73
2023/08/17 03:54:02;;;;;;;;;17.33;16.67;;;;;24.19;100.00;101463.44;5031774;28;45325;-72
2023/08/17 03:56:27;;;;;;;;;16.00;14.67;;;;;24.13;100.00;101457.34;5024504;28;46129;-74
2023/08/17 03:58:53;;;;;;;;;23.00;21.33;;;;;24.13;100.00;101460.97;5024529;28;65371;-72
2023/08/17 04:01:18;;;;;;;;;22.33;18.00;;;;;24.13;100.00;101454.66;5024112;28;45506;-72
2023/08/17 04:03:43;;;;;;;;;19.67;18.33;;;;;23.94;100.00;101452.63;5023130;28;55114;-73
2023/08/17 04:06:10;;;;;;;;;16.33;16.33;;;;;23.73;100.00;101448.84;5024335;28;60739;-72
2023/08/17 04:08:38;;;;;;;;;16.00;15.00;;;;;23.84;100.00;101455.69;5015086;28;45403;-72
2023/08/17 04:11:04;;;;;;;;;19.00;18.00;;;;;23.90;100.00;101442.84;5026971;28;45535;-73
2023/08/17 04:13:30;;;;;;;;;23.67;20.67;;;;;23.90;100.00;101448.25;5023025;28;45357;-74
2023/08/17 04:15:55;;;;;;;;;20.33;18.67;;;;;23.92;100.00;101446.41;5006758;28;46796;-74
2023/08/17 04:18:21;;;;;;;;;20.00;20.00;;;;;23.92;100.00;101449.09;5024534;28;67818;-72
2023/08/17 04:20:46;;;;;;;;;19.00;19.00;;;;;23.88;100.00;101442.03;5024542;28;63917;-72
2023/08/17 04:23:11;;;;;;;;;18.33;18.33;;;;;23.88;100.00;101436.66;5018079;28;56505;-72
2023/08/17 04:25:37;;;;;;;;;30.00;23.67;;;;;23.78;100.00;101432.50;5026798;28;71221;-72
2023/08/17 04:28:02;;;;;;;;;22.00;19.33;;;;;23.68;100.00;101442.72;5021285;28;65487;-74
2023/08/17 04:30:27;;;;;;;;;26.33;20.00;;;;;23.58;100.00;101435.84;5018837;28;45460;-73
2023/08/17 04:32:53;;;;;;;;;22.67;19.00;;;;;23.71;100.00;101433.66;5025013;28;45356;-73
2023/08/17 04:35:19;;;;;;;;;24.00;16.33;;;;;23.66;100.00;101438.31;5018702;28;45658;-71
2023/08/17 04:37:44;;;;;;;;;20.33;19.33;;;;;23.62;100.00;101442.88;5024711;28;45495;-72
2023/08/17 04:40:10;;;;;;;;;23.33;23.00;;;;;23.74;100.00;101436.22;5024127;28;59016;-72
2023/08/17 04:42:36;;;;;;;;;24.00;19.00;;;;;23.49;100.00;101442.44;5031150;28;45432;-72
2023/08/17 04:45:01;;;;;;;;;18.33;18.00;;;;;23.47;100.00;101449.66;5009893;28;46163;-72
2023/08/17 04:47:27;;;;;;;;;24.00;21.33;;;;;23.45;100.00;101454.25;5006505;28;45638;-73
2023/08/17 04:49:53;;;;;;;;;25.33;24.33;;;;;23.68;100.00;101445.41;5024412;28;45456;-72
2023/08/17 04:52:18;;;;;;;;;23.33;20.67;;;;;23.51;100.00;101458.53;5032195;28;45605;-72
2023/08/17 04:54:43;;;;;;;;;24.67;20.00;;;;;23.65;100.00;101452.72;5017358;28;45337;-74
2023/08/17 04:57:09;;;;;;;;;24.00;23.00;;;;;23.63;100.00;101452.78;5024648;28;45373;-72
2023/08/17 04:59:34;;;;;;;;;19.67;19.00;;;;;23.65;100.00;101450.94;5023885;28;45871;-74
2023/08/17 05:02:00;;;;;;;;;23.33;19.33;;;;;23.45;100.00;101462.31;5024715;28;45538;-72
2023/08/17 05:04:25;;;;;;;;;22.33;20.33;;;;;23.53;100.00;101454.84;5017407;28;69788;-72
2023/08/17 05:06:50;;;;;;;;;21.33;21.33;;;;;23.66;100.00;101458.06;5020174;28;60750;-72
2023/08/17 05:09:15;;;;;;;;;28.67;24.33;;;;;23.62;100.00;101455.50;5019494;28;57495;-72
2023/08/17 05:11:41;;;;;;;;;19.00;17.67;;;;;23.52;100.00;101458.47;5023858;28;57049;-72
2023/08/17 05:14:06;;;;;;;;;26.33;23.33;;;;;23.53;100.00;101459.38;5025498;28;71671;-74
2023/08/17 05:16:31;;;;;;;;;17.67;17.67;;;;;23.50;100.00;101459.47;5015464;28;67639;-73
2023/08/17 05:18:59;;;;;;;;;21.33;21.33;;;;;23.58;100.00;101454.69;5015590;28;56231;-73
2023/08/17 05:21:24;;;;;;;;;22.33;21.00;;;;;23.69;100.00;101457.06;5016643;28;45582;-73
2023/08/17 05:23:50;;;;;;;;;23.67;21.67;;;;;23.69;100.00;101457.06;5026100;28;47787;-74
2023/08/17 05:26:15;;;;;;;;;25.00;23.33;;;;;23.56;100.00;101461.09;5015972;28;56166;-74
2023/08/17 05:28:41;;;;;;;;;28.00;24.00;;;;;23.51;100.00;101455.84;5021012;28;45411;-74
2023/08/17 05:31:07;;;;;;;;;21.67;20.67;;;;;23.47;100.00;101448.78;5016279;28;46184;-74
2023/08/17 05:33:32;;;;;;;;;22.67;20.67;;;;;23.51;100.00;101454.03;5016673;28;46576;-73
2023/08/17 05:35:57;;;;;;;;;23.33;22.00;;;;;23.51;100.00;101459.44;5015541;28;56675;-73
2023/08/17 05:38:23;;;;;;;;;26.67;22.00;;;;;23.56;100.00;101455.69;5027733;28;63163;-72
2023/08/17 05:40:57;;;;;;;;;27.67;20.00;;;;;23.55;100.00;101456.63;5024307;28;46550;-73
2023/08/17 05:43:22;;;;;;;;;22.00;20.33;;;;;23.56;100.00;101453.88;5033016;28;45970;-73
2023/08/17 05:45:48;;;;;;;;;26.00;23.33;;;;;23.58;100.00;101456.53;5033290;28;45369;-73
2023/08/17 05:48:13;;;;;;;;;35.00;28.00;;;;;23.59;100.00;101442.09;5035200;28;45929;-72
2023/08/17 05:50:41;;;;;;;;;32.33;29.33;;;;;23.62;100.00;101445.59;5034514;28;62630;-73
2023/08/17 05:53:07;;;;;;;;;28.00;27.00;;;;;23.73;100.00;101446.13;5033210;28;45699;-74
2023/08/17 05:55:32;;;;;;;;;32.33;27.67;;;;;23.73;100.00;101447.97;5034613;28;63936;-72
2023/08/17 05:57:57;;;;;;;;;31.00;27.00;;;;;23.77;100.00;101447.81;5034354;28;64296;-72
2023/08/17 06:00:23;;;;;;;;;30.00;24.33;;;;;23.70;100.00;101448.97;5033777;28;62089;-72
2023/08/17 06:02:51;;;;;;;;;25.67;25.00;;;;;23.82;100.00;101441.38;5035457;28;45649;-74
2023/08/17 06:05:16;;;;;;;;;28.33;26.33;;;;;23.84;100.00;101445.78;5039009;28;45423;-73
2023/08/17 06:07:42;;;;;;;;;28.00;23.33;;;;;23.73;100.00;101429.97;5039790;28;45522;-73
2023/08/17 06:10:08;;;;;;;;;26.67;23.00;;;;;23.77;100.00;101434.31;5034759;28;45508;-74
2023/08/17 06:12:34;;;;;;;;;26.33;25.33;;;;;23.79;100.00;101437.84;5034303;28;46450;-74
2023/08/17 06:14:59;;;;;;;;;27.00;25.33;;;;;23.78;100.00;101436.06;5034324;28;63553;-74
2023/08/17 06:17:24;;;;;;;;;29.67;24.67;;;;;23.81;100.00;101435.09;5033528;28;52347;-74
2023/08/17 06:19:50;;;;;;;;;25.67;25.67;;;;;23.79;100.00;101437.84;5037671;28;45606;-72
2023/08/17 06:22:15;;;;;;;;;30.67;26.67;;;;;23.86;100.00;101437.63;5037020;28;45647;-73
2023/08/17 06:24:40;;;;;;;;;28.00;27.67;;;;;23.84;100.00;101434.09;5036753;28;55303;-71
2023/08/17 06:27:06;;;;;;;;;30.00;28.00;;;;;24.00;100.00;101429.94;5036965;28;63325;-69
2023/08/17 06:29:31;;;;;;;;;30.33;30.33;;;;;23.96;100.00;101434.56;5037090;28;59743;-72
2023/08/17 06:31:56;;;;;;;;;31.67;30.33;;;;;23.86;100.00;101438.50;5033049;28;62065;-72
2023/08/17 06:34:22;;;;;;;;;32.33;30.67;;;;;23.92;100.00;101432.03;5038745;28;52206;-71
2023/08/17 06:36:58;;;;;;;;;27.67;27.00;;;;;23.92;100.00;101434.75;5034314;28;64511;-70
2023/08/17 06:39:23;;;;;;;;;30.67;28.00;;;;;23.68;100.00;101434.63;5036152;28;45515;-73
2023/08/17 06:41:48;;;;;;;;;35.67;30.00;;;;;23.75;100.00;101438.00;5036129;28;50044;-75
2023/08/17 06:44:14;;;;;;;;;33.33;27.67;;;;;23.74;100.00;101438.94;5020905;28;68306;-73
2023/08/17 06:46:39;;;;;;;;;31.33;30.00;;;;;23.73;100.00;101435.34;5014599;28;54232;-73
2023/08/17 06:49:04;;;;;;;;;32.00;28.67;;;;;23.75;100.00;101428.09;5024748;28;63721;-73
2023/08/17 06:51:30;;;;;;;;;27.00;26.00;;;;;23.82;100.00;101436.88;5018590;28;69183;-73
2023/08/17 06:53:55;;;;;;;;;36.00;31.00;;;;;23.84;100.00;101426.91;5023176;28;64318;-72
2023/08/17 06:56:22;;;;;;;;;36.00;29.33;;;;;23.85;100.00;101420.56;5026696;28;53785;-73
2023/08/17 06:58:47;;;;;;;;;30.33;30.33;;;;;23.89;100.00;101415.94;5021038;28;45836;-75
2023/08/17 07:01:14;;;;;;;;;32.67;31.33;;;;;23.92;100.00;101419.44;5019145;28;68064;-72
2023/08/17 07:03:39;;;;;;;;;33.33;30.00;;;;;23.98;100.00;101416.50;5026895;28;45434;-71
2023/08/17 07:06:05;;;;;;;;;36.00;30.00;;;;;24.06;100.00;101413.53;5024670;28;54688;-71
2023/08/17 07:08:30;;;;;;;;;32.67;31.00;;;;;24.09;100.00;101408.03;5026493;28;58258;-72
2023/08/17 07:10:55;;;;;;;;;26.67;24.33;;;;;24.14;100.00;101407.88;5021977;28;72065;-71
2023/08/17 07:13:21;;;;;;;;;34.33;31.33;;;;;24.19;100.00;101409.47;5029698;28;68606;-70
2023/08/17 07:15:46;;;;;;;;;34.33;31.67;;;;;24.25;100.00;101413.75;5025885;28;65290;-70
2023/08/17 07:18:11;;;;;;;;;31.33;29.33;;;;;24.18;100.00;101420.28;5023130;28;60630;-70
2023/08/17 07:20:36;;;;;;;;;33.33;28.67;;;;;24.25;100.00;101422.72;5016374;28;68813;-71
2023/08/17 07:23:02;;;;;;;;;33.00;29.33;;;;;24.31;100.00;101427.91;5024460;28;65043;-71
2023/08/17 07:25:28;;;;;;;;;33.67;28.67;;;;;24.35;100.00;101426.00;5017471;28;46018;-70
2023/08/17 07:27:53;;;;;;;;;26.33;25.33;;;;;24.40;100.00;101426.72;5022031;28;45392;-71
2023/08/17 07:30:19;;;;;;;;;22.33;22.00;;;;;24.44;100.00;101422.94;5015642;28;64727;-71
2023/08/17 07:32:44;;;;;;;;;30.00;26.67;;;;;24.51;100.00;101426.34;5027629;28;45458;-71
2023/08/17 07:35:10;;;;;;;;;30.67;29.00;;;;;24.46;100.00;101418.41;5007405;28;45823;-72
2023/08/17 07:37:35;;;;;;;;;34.00;31.67;;;;;24.64;100.00;101418.63;5026626;28;45609;-70
2023/08/17 07:40:03;;;;;;;;;30.00;24.00;;;;;24.75;100.00;101411.00;5003740;28;46548;-72
2023/08/17 07:42:28;;;;;;;;;33.33;29.67;;;;;24.85;100.00;101414.22;5121285;22;45432;-70
2023/08/17 07:44:54;;;;;;;;;30.33;27.33;;;;;24.90;100.00;101407.69;5016552;28;45503;-70
2023/08/17 07:47:19;;;;;;;;;26.33;24.00;;;;;24.75;100.00;101409.16;5015325;28;53395;-70
2023/08/17 07:49:44;;;;;;;;;31.00;27.33;;;;;24.89;100.00;101421.28;5015671;28;67485;-71
2023/08/17 07:52:10;;;;;;;;;32.33;26.00;;;;;25.02;100.00;101414.44;5015967;28;66761;-71
2023/08/17 07:54:35;;;;;;;;;36.67;30.67;;;;;25.09;100.00;101421.41;5015197;28;62160;-70
2023/08/17 07:57:02;;;;;;;;;28.33;26.00;;;;;25.14;100.00;101424.81;5016186;28;61424;-70
2023/08/17 07:59:27;;;;;;;;;29.00;23.67;;;;;25.19;100.00;101416.47;5016052;28;46775;-70
2023/08/17 08:01:53;;;;;;;;;33.67;31.33;;;;;25.28;100.00;101429.63;5016589;28;63771;-71
2023/08/17 08:04:18;;;;;;;;;27.67;24.33;;;;;25.32;100.00;101428.56;5020667;28;45512;-71
2023/08/17 08:06:43;;;;;;;;;40.33;33.33;;;;;25.40;100.00;101423.72;5017991;28;61274;-71
2023/08/17 08:09:09;;;;;;;;;32.67;31.33;;;;;25.35;100.00;101423.03;5014294;28;64179;-70
2023/08/17 08:11:34;;;;;;;;;28.67;26.00;;;;;25.31;100.00;101418.72;5016277;28;45432;-71
2023/08/17 08:14:00;;;;;;;;;26.33;26.33;;;;;25.36;100.00;101415.81;5016070;28;45305;-72
2023/08/17 08:16:26;;;;;;;;;29.33;26.33;;;;;25.40;100.00;101417.44;5017232;28;45455;-71
2023/08/17 08:18:51;;;;;;;;;30.00;28.00;;;;;25.47;100.00;101421.66;5015824;28;45471;-71
2023/08/17 08:21:16;;;;;;;;;23.67;23.67;;;;;25.56;100.00;101421.25;5016133;28;54418;-71
2023/08/17 08:23:42;;;;;;;;;31.33;27.67;;;;;25.63;100.00;101420.06;5015988;28;46001;-72
2023/08/17 08:26:07;;;;;;;;;30.33;26.67;;;;;25.68;100.00;101414.47;5015561;28;54395;-70
2023/08/17 08:28:32;;;;;;;;;31.33;27.00;;;;;25.75;100.00;101416.00;5015057;28;71648;-70
2023/08/17 08:31:02;;;;;;;;;24.33;21.67;;;;;25.82;100.00;101417.47;5013161;28;66642;-71
2023/08/17 08:33:27;;;;;;;;;31.00;24.33;;;;;25.86;100.00;101421.81;5014012;28;45444;-71
2023/08/17 08:35:53;;;;;;;;;29.67;28.67;;;;;25.93;100.00;101412.47;5014806;28;57557;-71
2023/08/17 08:38:18;;;;;;;;;30.00;24.00;;;;;25.96;100.00;101406.94;5014803;28;68692;-70
2023/08/17 08:40:44;;;;;;;;;29.00;24.00;;;;;26.04;100.00;101414.72;5013292;28;69525;-71
2023/08/17 08:43:09;;;;;;;;;20.67;20.67;;;;;26.11;100.00;101421.63;5013596;28;65137;-71
2023/08/17 08:45:35;;;;;;;;;27.00;25.67;;;;;26.13;100.00;101417.03;5035492;28;61083;-70
2023/08/17 08:48:02;;;;;;;;;28.00;25.33;;;;;26.22;100.00;101413.91;5033893;28;45912;-70
2023/08/17 08:50:31;;;;;;;;;27.67;26.67;;;;;26.26;100.00;101418.25;5035165;28;46019;-71
2023/08/17 08:53:01;;;;;;;;;26.33;23.33;;;;;26.33;100.00;101416.13;5035148;28;45406;-71
2023/08/17 08:55:29;;;;;;;;;33.33;26.00;;;;;26.39;100.00;101411.31;5030983;28;45534;-70
2023/08/17 08:57:55;;;;;;;;;22.67;19.00;;;;;26.47;100.00;101407.38;5034837;28;46406;-71
2023/08/17 09:00:22;;;;;;;;;30.67;25.33;;;;;26.53;100.00;101408.00;5037956;28;45535;-70
2023/08/17 09:02:49;;;;;;;;;29.00;29.00;;;;;26.58;100.00;101400.56;5038079;28;45449;-71
2023/08/17 09:05:14;;;;;;;;;26.00;24.67;;;;;26.63;100.00;101403.94;5037878;28;46079;-71
2023/08/17 09:07:40;;;;;;;;;26.33;26.33;;;;;26.67;100.00;101398.34;5038686;28;67532;-71
2023/08/17 09:10:06;;;;;;;;;25.67;25.00;;;;;26.71;100.00;101397.25;5032053;28;53103;-71
2023/08/17 09:12:32;;;;;;;;;26.67;25.67;;;;;26.78;100.00;101398.72;5043940;28;45716;-71
2023/08/17 09:14:57;;;;;;;;;31.00;27.00;;;;;26.83;100.00;101399.38;5035819;28;63308;-70
2023/08/17 09:17:24;;;;;;;;;23.67;23.67;;;;;26.89;100.00;101388.22;5035738;28;46557;-70
2023/08/17 09:19:49;;;;;;;;;18.33;18.00;;;;;26.99;100.00;101389.53;5035690;28;45451;-72
2023/08/17 09:22:25;;;;;;;;;34.00;28.00;;;;;27.04;100.00;101389.31;5030533;28;64474;-71
2023/08/17 09:24:50;;;;;;;;;30.67;29.00;;;;;27.09;100.00;101379.19;5036098;28;45368;-72
2023/08/17 09:27:16;;;;;;;;;25.00;24.33;;;;;27.19;100.00;101385.03;5033745;28;46508;-71
2023/08/17 09:29:45;;;;;;;;;21.33;19.00;;;;;27.24;100.00;101382.97;5035736;28;45565;-71
2023/08/17 09:32:11;;;;;;;;;21.00;19.67;;;;;27.30;100.00;101382.66;5034521;28;45625;-71
2023/08/17 09:34:36;;;;;;;;;24.00;23.67;;;;;27.34;100.00;101373.41;5037745;28;45531;-72
2023/08/17 09:37:05;;;;;;;;;23.67;22.33;;;;;27.40;100.00;101373.97;5053735;28;46431;-71
2023/08/17 09:39:31;;;;;;;;;24.67;22.00;;;;;27.46;100.00;101383.63;5034410;28;68197;-71
2023/08/17 09:41:57;;;;;;;;;21.00;21.00;;;;;27.54;100.00;101376.00;5035165;28;45291;-71
2023/08/17 09:44:22;;;;;;;;;26.67;20.67;;;;;27.63;100.00;101377.34;5014551;28;64391;-71
2023/08/17 09:46:47;;;;;;;;;21.33;18.00;;;;;27.65;100.00;101373.59;4997001;28;63631;-70
2023/08/17 09:49:13;;;;;;;;;23.33;20.33;;;;;27.70;100.00;101365.28;4996492;28;68703;-72
2023/08/17 09:51:42;;;;;;;;;22.67;21.00;;;;;27.76;100.00;101364.06;5015296;28;45498;-71
2023/08/17 09:54:07;;;;;;;;;19.00;17.67;;;;;27.79;100.00;101369.31;5015110;28;45346;-71
2023/08/17 09:56:34;;;;;;;;;22.33;19.00;;;;;27.84;100.00;101359.09;5014339;28;70982;-71
2023/08/17 09:58:59;;;;;;;;;22.33;19.67;;;;;27.89;100.00;101368.75;5014833;28;68233;-71
2023/08/17 10:01:27;;;;;;;;;23.00;20.33;;;;;27.95;100.00;101353.97;5014918;28;45489;-71
2023/08/17 10:03:54;;;;;;;;;22.67;20.33;;;;;27.99;100.00;101354.69;5014889;28;45591;-71
2023/08/17 10:06:22;;;;;;;;;19.00;15.33;;;;;28.07;100.00;101349.72;5029864;28;45879;-71
2023/08/17 10:08:49;;;;;;;;;18.00;16.67;;;;;28.13;100.00;101346.69;4996987;28;45584;-71
2023/08/17 10:11:19;;;;;;;;;22.00;19.00;;;;;28.16;100.00;101341.97;5014809;28;45467;-71
2023/08/17 10:14:02;;;;;;;;;22.67;21.67;;;;;28.27;100.00;101345.94;4997306;28;45234;-70
2023/08/17 10:16:45;;;;;;;;;19.67;18.67;;;;;28.33;100.00;101338.34;4996947;28;45746;-70
2023/08/17 10:19:20;;;;;;;;;19.33;18.00;;;;;28.38;100.00;101344.41;5014505;28;45400;-71
2023/08/17 10:21:59;;;;;;;;;20.33;18.33;;;;;28.44;100.00;101332.31;5015334;28;45277;-70
2023/08/17 10:24:24;;;;;;;;;16.67;16.67;;;;;28.64;100.00;101337.53;4993216;28;45528;-71
2023/08/17 10:26:51;;;;;;;;;17.67;17.67;;;;;28.69;100.00;101329.09;5013972;28;66365;-72
2023/08/17 10:29:17;;;;;;;;;16.33;15.00;;;;;28.76;100.00;101329.63;4996297;28;45555;-71
2023/08/17 10:31:46;;;;;;;;;19.67;17.00;;;;;28.81;100.00;101330.25;4996056;28;64719;-72
2023/08/17 10:34:12;;;;;;;;;18.33;15.00;;;;;28.86;100.00;101322.69;5013946;28;63797;-71
2023/08/17 10:36:38;;;;;;;;;17.67;17.67;;;;;28.90;100.00;101319.72;4996967;28;45573;-71
2023/08/17 10:39:24;;;;;;;;;17.33;17.00;;;;;28.94;100.00;101318.63;5014400;28;55294;-71
2023/08/17 10:41:51;;;;;;;;;17.00;16.67;;;;;29.00;100.00;101319.22;5029472;28;45427;-72
2023/08/17 10:44:41;;;;;;;;;16.00;14.67;;;;;29.09;100.00;101314.13;5014623;28;45499;-71
2023/08/17 10:47:20;;;;;;;;;12.67;12.67;;;;;29.13;100.00;101312.97;5014589;28;45668;-71
2023/08/17 10:49:45;;;;;;;;;17.00;14.33;;;;;29.13;100.00;101315.69;5011512;28;45495;-72
2023/08/17 10:52:11;;;;;;;;;19.33;15.67;;;;;29.19;100.00;101311.72;5014090;28;64366;-71
2023/08/17 10:54:40;;;;;;;;;16.00;16.00;;;;;29.26;100.00;101301.38;5014208;28;45577;-71
2023/08/17 10:57:34;;;;;;;;;14.67;13.67;;;;;29.34;100.00;101299.94;4991709;28;46701;-71
2023/08/17 11:00:24;;;;;;;;;19.67;17.33;;;;;29.38;100.00;101312.38;4996432;28;45411;-71